WEATHER DATA

YESTERDAY
Time Temp. Dewp. Hum. Wind dir Wind speed Wind gust Bar. 1h Prec. 24h Prec.
00:04 0.9 0.8 99 243 1.4 2.5 1024.5 0.0000 0.0000
00:14 0.9 0.8 99 237 1.7 2.5 1024.3 0.0000 0.0000
00:24 0.8 0.7 99 243 1.7 2.2 1024.3 0.0000 0.0000
00:34 0.7 0.6 99 254 1.7 2.5 1024.4 0.0000 0.0000
00:44 0.4 0.1 98 254 1.4 2.5 1024.6 0.0000 0.0000
00:54 0.1 -0.2 98 257 1.4 2.2 1024.6 0.0000 0.0000
01:04 0 -0.1 99 258 1.4 2.5 1024.6 0.0000 0.0000
01:14 -0.2 -0.3 99 256 1.7 2.5 1024.7 0.0000 0.0000
01:20 -0.2 -0.3 99 261 1.4 2.5 1024.6 0.0000 0.0000
01:30 -0.3 -0.4 99 256 1.4 2.5 1024.7 0.0000 0.0000
01:45 -0.4 -0.5 99 251 1.7 2.8 1025 0.0000 0.0000
01:55 -0.4 -0.5 99 252 1.4 2.5 1025.1 0.0000 0.0000
02:05 -0.4 -0.4 100 255 1.4 2.5 1025.1 0.0000 0.0000
02:15 -0.5 -0.5 100 255 1.7 2.5 1025.1 0.0000 0.0000
02:25 -0.5 -0.5 100 253 1.7 2.5 1025.3 0.0000 0.0000
02:35 -0.5 -0.5 100 256 1.7 2.5 1025.4 0.0000 0.0000
02:46 -0.5 -0.5 100 251 1.4 2.5 1025.4 0.0000 0.0000
02:55 -0.5 -0.5 100 260 1.4 2.2 1025.6 0.0000 0.0000
03:01 -0.5 -0.5 100 251 1.4 2.2 1025.4 0.0000 0.0000
03:15 -0.4 -0.4 100 247 1.7 2.8 1025.6 0.0000 0.0000
03:21 -0.4 -0.4 100 250 1.7 2.5 1025.6 0.0000 0.0000
03:36 -0.3 -0.3 100 249 1.7 2.5 1025.6 0.0000 0.0000
03:46 -0.3 -0.3 100 251 1.7 2.5 1025.6 0.0000 0.0000
03:56 -0.3 -0.3 100 254 1.7 2.8 1025.7 0.0000 0.0000
04:06 -0.3 -0.3 100 253 1.7 2.5 1025.8 0.1010 0.1000
04:16 -0.2 -0.2 100 254 1.7 2.5 1025.9 0.1010 0.1000
04:26 -0.2 -0.2 100 251 1.7 2.8 1025.9 0.1010 0.1000
04:37 -0.2 -0.2 100 251 1.7 2.8 1026 0.1010 0.1000
04:47 -0.2 -0.2 100 246 1.7 2.5 1026.1 0.1010 0.1000
04:57 -0.1 -0.1 100 247 1.7 2.5 1026.1 0.1010 0.1000
05:06 -0.1 -0.1 100 250 1.7 2.5 1026.2 0.0000 0.1000
05:17 -0.1 -0.1 100 248 1.7 2.5 1026.2 0.0000 0.1000
05:27 -0.1 -0.1 100 251 1.7 2.5 1026.3 0.0000 0.1000
05:37 -0.1 -0.1 100 254 1.7 2.8 1026.2 0.0000 0.1000
05:47 -0.1 -0.1 100 251 1.9 2.8 1026.3 0.0000 0.1000
05:57 -0.1 -0.1 100 255 1.9 2.5 1026.5 0.0000 0.1000
06:07 -0.1 -0.1 100 253 1.9 2.8 1026.5 0.0000 0.1000
06:17 -0.1 -0.1 100 244 1.7 2.5 1026.5 0.0000 0.1000
06:28 -0.1 -0.1 100 250 1.7 2.5 1026.7 0.0000 0.1000
06:37 -0.1 -0.1 100 244 1.9 2.8 1026.7 0.0000 0.1000
06:47 -0.1 -0.1 100 248 1.7 2.5 1026.8 0.0000 0.1000
06:57 -0.1 -0.1 100 253 1.7 2.5 1026.9 0.0000 0.1000
07:08 -0.1 -0.1 100 251 1.9 2.8 1026.9 0.0000 0.1000
07:18 -0.1 -0.1 100 254 1.7 2.5 1027 0.0000 0.1000
07:38 0 0 100 249 1.7 2.5 1027.3 0.0000 0.1000
07:48 0 0 100 255 1.4 2.5 1027.4 0.0000 0.1000
07:58 0 0 100 254 1.4 2.5 1027.5 0.0000 0.1000
08:09 0 0 100 254 1.4 2.8 1027.7 0.0000 0.1000
08:18 0.1 0.1 100 254 1.7 2.5 1027.9 0.0000 0.1000
08:28 0.1 0.1 100 247 1.7 2.5 1027.9 0.0000 0.1000
08:38 0.1 0.1 100 252 1.9 2.8 1028 0.0000 0.1000
08:49 0.2 0.2 100 246 1.9 2.8 1028 0.0000 0.1000
08:58 0.2 0.2 100 246 1.7 2.5 1028.1 0.0000 0.1000
09:08 0.3 0.3 100 251 1.7 2.8 1028.2 0.0000 0.1000
09:19 0.3 0.3 100 250 1.9 2.8 1028.2 0.0000 0.1000
09:28 0.4 0.4 100 251 1.7 2.5 1028.3 0.0000 0.1000
09:39 0.4 0.4 100 249 1.4 2.5 1028.3 0.0000 0.1000
09:49 0.5 0.5 100 240 1.7 2.8 1028.3 0.0000 0.1000
09:54 0.6 0.6 100 239 1.7 2.8 1028.5 0.0000 0.1000
10:05 0.7 0.7 100 253 1.7 3.1 1028.5 0.0000 0.1000
10:30 0.8 0.8 100 256 2.2 3.1 1028.7 0.0000 0.1000
10:40 0.9 0.9 100 250 2.2 2.8 1028.7 0.0000 0.1000
10:49 1.1 1.1 100 253 1.9 3.1 1028.6 0.0000 0.1000
10:59 1.2 1.2 100 248 1.7 2.8 1028.6 0.0000 0.1000
11:09 1.3 1.3 100 247 1.7 2.8 1028.5 0.0000 0.1000
11:19 1.5 1.5 100 244 1.9 3.1 1028.5 0.0000 0.1000
11:30 1.7 1.7 100 250 1.7 2.5 1028.6 0.0000 0.1000
11:40 1.8 1.8 100 246 1.7 2.5 1028.6 0.0000 0.1000
11:50 1.9 1.9 100 251 1.9 3.3 1028.6 0.0000 0.1000
11:56 2 2 100 253 2.2 3.3 1028.5 0.0000 0.1000
12:10 2.1 2.1 100 246 1.9 3.1 1028.3 0.0000 0.1000
12:21 2.1 2.1 100 244 1.9 3.1 1028.2 0.0000 0.1000
12:26 2.2 2.2 100 247 1.9 3.1 1028 0.0000 0.1000
12:41 2.3 2.2 99 255 1.9 3.1 1028 0.0000 0.1000
12:51 2.4 2.3 99 246 1.7 2.5 1028.1 0.0000 0.1000
13:01 2.5 2.4 99 249 1.7 2.5 1028 0.0000 0.1000
13:11 2.6 2.5 99 262 1.4 2.8 1028 0.0000 0.1000
13:21 2.6 2.5 99 264 1.7 2.5 1028 0.0000 0.1000
13:32 2.6 2.5 99 261 1.7 2.8 1028.1 0.0000 0.1000
13:41 2.7 2.6 99 258 1.7 3.1 1028 0.0000 0.1000
13:51 2.7 2.6 99 255 1.7 2.5 1028 0.0000 0.1000
14:01 2.8 2.7 99 240 1.7 2.2 1027.9 0.0000 0.1000
14:12 2.8 2.7 99 251 1.7 2.5 1028 0.0000 0.1000
14:21 2.8 2.7 99 255 1.7 2.5 1028 0.0000 0.1000
14:31 2.8 2.5 98 240 1.4 2.5 1028 0.0000 0.1000
14:42 2.7 2.4 98 235 1.4 2.8 1028 0.0000 0.1000
14:52 2.7 2.4 98 239 1.4 2.2 1028 0.0000 0.1000
15:02 2.7 2.4 98 239 1.7 2.8 1028.1 0.0000 0.1000
15:12 2.7 2.6 99 243 1.7 2.5 1028.2 0.0000 0.1000
15:22 2.7 2.4 98 235 1.4 2.2 1028.1 0.0000 0.1000
15:32 2.6 2.3 98 239 1.4 2.5 1028.1 0.0000 0.1000
15:38 2.6 2.3 98 248 1.7 2.8 1028 0.0000 0.1000
15:53 2.4 2.1 98 244 1.7 2.2 1028 0.0000 0.1000
16:03 2.3 2 98 236 1.7 2.5 1028.1 0.0000 0.1000
16:12 2.2 2.1 99 241 1.4 2.5 1028.2 0.0000 0.1000
16:22 2.1 2 99 241 1.7 2.8 1028.2 0.0000 0.1000
16:33 2.1 2 99 239 1.4 2.8 1028.3 0.0000 0.1000
16:43 2 1.9 99 239 1.4 2.5 1028.3 0.0000 0.1000
16:52 1.9 1.8 99 242 1.7 2.5 1028.6 0.0000 0.1000
17:03 1.8 1.7 99 239 1.4 2.5 1028.6 0.0000 0.1000
17:13 1.8 1.7 99 244 1.4 2.5 1028.7 0.0000 0.1000
17:23 1.7 1.7 100 251 1.7 2.5 1028.8 0.0000 0.1000
17:33 1.7 1.7 100 259 1.7 2.5 1029 0.0000 0.1000
17:43 1.7 1.7 100 254 1.7 2.5 1029 0.0000 0.1000
17:53 1.7 1.7 100 258 1.7 2.8 1029 0.0000 0.1000
18:03 1.6 1.6 100 251 1.9 3.1 1029 0.0000 0.1000
18:09 1.6 1.6 100 243 1.7 2.5 1029 0.0000 0.1000
18:24 1.6 1.6 100 249 1.7 2.8 1029 0.0000 0.1000
18:38 1.6 1.6 100 255 1.9 2.8 1029.2 0.0000 0.1000
18:49 1.6 1.6 100 245 1.9 2.8 1029.2 0.0000 0.1000
18:59 1.5 1.5 100 244 1.9 2.8 1029.1 0.0000 0.1000
19:09 1.5 1.5 100 247 1.7 2.8 1029.1 0.0000 0.1000
19:18 1.5 1.5 100 250 1.7 2.5 1029.2 0.0000 0.1000
19:29 1.4 1.4 100 243 1.7 2.8 1029.2 0.0000 0.1000
19:39 1.3 1.3 100 238 1.9 3.3 1029.1 0.0000 0.1000
19:49 1.2 1.2 100 252 1.9 3.1 1029 0.0000 0.1000
19:59 1.1 1.1 100 243 1.9 2.8 1029.1 0.0000 0.1000
20:09 1.1 1.1 100 249 1.7 2.5 1029.1 0.0000 0.1000
20:24 1 1 100 258 1.9 2.8 1029.3 0.0000 0.1000
20:34 0.9 0.9 100 253 1.7 2.5 1029.3 0.0000 0.1000
20:44 0.8 0.8 100 251 1.7 3.1 1029.4 0.0000 0.1000
20:54 0.7 0.7 100 257 1.7 2.2 1029.4 0.0000 0.1000
21:04 0.7 0.7 100 260 1.7 2.5 1029.5 0.0000 0.1000
21:14 0.6 0.6 100 254 1.7 2.8 1029.4 0.0000 0.1000
21:24 0.5 0.5 100 250 1.9 3.3 1029.5 0.0000 0.1000
21:34 0.4 0.4 100 254 1.7 2.5 1029.6 0.0000 0.1000
21:45 0.3 0.3 100 255 1.4 2.2 1029.5 0.0000 0.1000
21:55 0.2 0.2 100 257 1.7 2.8 1029.4 0.0000 0.1000
22:05 0.2 0.2 100 254 1.7 2.8 1029.4 0.0000 0.1000
22:14 0.2 0.2 100 247 1.7 2.5 1029.4 0.0000 0.1000
22:24 0.1 0.1 100 243 1.9 2.8 1029.5 0.0000 0.1000
22:34 0.1 0.1 100 247 1.7 2.8 1029.5 0.0000 0.1000
22:44 0 0 100 240 2.2 3.1 1029.4 0.0000 0.1000
22:55 -0.1 -0.1 100 242 1.7 2.5 1029.4 0.0000 0.1000
23:05 -0.1 -0.1 100 254 1.7 2.8 1029.5 0.0000 0.1000
23:15 -0.2 -0.2 100 261 1.4 2.5 1029.6 0.0000 0.1000
23:25 -0.2 -0.2 100 253 1.7 2.5 1029.6 0.0000 0.1000
23:35 -0.2 -0.2 100 255 1.7 2.2 1029.7 0.0000 0.1000
23:45 -0.2 -0.2 100 253 1.7 2.5 1029.7 0.0000 0.1000
23:55 -0.3 -0.3 100 248 1.7 2.8 1029.7 0.0000

DAY STATISTIC

2020-01-18
TEMPERATURE
AVERAGE
0.8
HIGH
2.8
14:01
LOW
-0.5
02:15
PRESSURE
AVERAGE
1027.7
HIGH
1029.7
23:35
LOW
1024.3
00:14
DEWPOINT
AVERAGE
0.8
HIGH
2.7
14:01
LOW
-0.5
01:45
HUMIDITY
AVERAGE
100
HIGH
100
02:05
LOW
98
00:44
WIND SPEED
AVERAGE
1.7
HIGH
2.2
10:30
WIND GUST
AVERAGE
2.6
HIGH
3.3
11:50
WIND DIRECTION
PREVAILING
W
65%
N
0.0
NE
0.0
E
0.0
SE
0.0
S
0.0
SW
35.0
W
65.0
NW
0.0
PRECIPITATION
RAIN HOUR
0.1
RAIN DAY
0.1
TEMPERATURE (°C)
LOW
-0.5
HIGH
2.8
AVERAGE
0.8
PRESSURE (hpa)
LOW
1024.3
HIGH
1029.7
AVERAGE
1027.7
DEVICE